Time;durP1;ratioP1;P1;durP2;ratioP2;P2;SDS_P1;SDS_P2;PMS_P1;PMS_P2;Temp;Humidity;BMP_temperature;BMP_pressure;BME280_temperature;BME280_humidity;BME280_pressure;Samples;Min_cycle;Max_cycle;Signal;HPM_P1;HPM_P2
2023/02/02 00:01:32;;;;;;;6.53;3.58;;;;;;;4.56;93.98;100254.13;5072230;28;20054;-69
2023/02/02 00:03:58;;;;;;;5.72;2.85;;;;;;;4.62;93.83;100274.97;5078877;28;20028;-69
2023/02/02 00:06:25;;;;;;;13.82;3.55;;;;;;;4.67;93.61;100278.16;5071299;28;20507;-69
2023/02/02 00:08:52;;;;;;;7.85;3.20;;;;;;;4.58;93.38;100247.75;5081175;28;20439;-69
2023/02/02 00:11:18;;;;;;;6.07;2.92;;;;;;;4.65;93.51;100257.00;5080478;28;20423;-69
2023/02/02 00:13:44;;;;;;;5.85;3.15;;;;;;;4.55;93.58;100255.06;5091598;28;20067;-69
2023/02/02 00:16:34;;;;;;;5.97;2.72;;;;;;;4.38;93.45;100234.03;5079972;28;20475;-69
2023/02/02 00:19:06;;;;;;;6.18;2.83;;;;;;;4.60;92.43;100255.63;5080053;28;20023;-68
2023/02/02 00:21:32;;;;;;;7.50;2.97;;;;;;;4.42;91.53;100231.09;5083608;28;20044;-69
2023/02/02 00:23:58;;;;;;;8.18;3.17;;;;;;;4.45;91.46;100243.34;5096634;28;20020;-68
2023/02/02 00:26:23;;;;;;;6.97;2.72;;;;;;;4.68;88.08;100237.41;5098991;28;20561;-69
2023/02/02 00:28:49;;;;;;;6.05;2.53;;;;;;;4.70;88.70;100228.38;5082991;28;20123;-69
2023/02/02 00:31:14;;;;;;;5.95;2.42;;;;;;;4.46;90.47;100182.13;5098995;27;20532;-70
2023/02/02 00:33:44;;;;;;;4.07;2.40;;;;;;;4.48;91.65;100203.28;5094931;28;20015;-69
2023/02/02 00:36:09;;;;;;;4.90;2.45;;;;;;;4.78;91.14;100240.28;5093480;27;20111;-70
2023/02/02 00:38:36;;;;;;;7.82;3.10;;;;;;;4.78;89.35;100219.91;5082440;28;20102;-70
2023/02/02 00:41:02;;;;;;;5.00;2.28;;;;;;;4.84;88.22;100222.16;5100374;28;20482;-68
2023/02/02 00:43:28;;;;;;;4.55;2.25;;;;;;;4.74;87.51;100191.81;5095171;27;20024;-69
2023/02/02 00:45:54;;;;;;;3.55;1.80;;;;;;;4.75;89.12;100198.84;5077111;28;20715;-69
2023/02/02 00:48:19;;;;;;;3.28;2.25;;;;;;;4.82;89.08;100207.25;5062334;28;20401;-68
2023/02/02 00:50:44;;;;;;;5.50;2.35;;;;;;;4.81;88.22;100182.50;5094808;28;20050;-68
2023/02/02 00:53:10;;;;;;;4.47;2.00;;;;;;;4.89;88.71;100203.22;5095213;27;20063;-69
2023/02/02 00:55:35;;;;;;;5.30;2.10;;;;;;;5.01;87.07;100208.59;5098798;28;20104;-69
2023/02/02 00:58:01;;;;;;;4.47;1.70;;;;;;;4.94;87.52;100207.31;5078365;28;20039;-69
2023/02/02 01:00:27;;;;;;;3.97;2.15;;;;;;;5.12;86.98;100231.81;5075712;28;20042;-69
2023/02/02 01:02:53;;;;;;;3.80;2.15;;;;;;;5.23;85.65;100215.97;5096194;28;20235;-69
2023/02/02 01:05:19;;;;;;;4.25;2.40;;;;;;;4.77;85.92;100158.91;5093369;28;20128;-69
2023/02/02 01:07:45;;;;;;;4.60;2.55;;;;;;;5.00;86.86;100196.25;5095450;27;20467;-69
2023/02/02 01:10:17;;;;;;;4.80;2.15;;;;;;;5.13;85.03;100202.47;5097823;28;20036;-69
2023/02/02 01:12:43;;;;;;;4.03;2.30;;;;;;;5.16;84.63;100199.56;5082017;28;20088;-70
2023/02/02 01:15:09;;;;;;;3.78;2.10;;;;;;;5.33;80.62;100177.16;5091087;27;20498;-69
2023/02/02 01:17:35;;;;;;;4.25;2.30;;;;;;;5.39;81.08;100196.22;5098244;28;20023;-69
2023/02/02 01:20:01;;;;;;;5.35;2.20;;;;;;;5.13;81.50;100135.16;5073309;28;20035;-70
2023/02/02 01:22:27;;;;;;;4.07;2.55;;;;;;;5.27;81.22;100153.66;5094113;28;20031;-69
2023/02/02 01:24:52;;;;;;;2.38;1.60;;;;;;;5.12;82.21;100138.78;5070639;28;20038;-70
2023/02/02 01:27:18;;;;;;;4.28;2.40;;;;;;;5.29;82.29;100168.53;5081531;28;20131;-69
2023/02/02 01:29:43;;;;;;;4.03;2.25;;;;;;;5.29;80.38;100133.97;5093537;27;20075;-70
2023/02/02 01:32:09;;;;;;;5.95;2.80;;;;;;;5.27;79.54;100133.25;5101421;28;20043;-70
2023/02/02 01:34:35;;;;;;;3.97;2.20;;;;;;;5.20;80.48;100125.78;5071065;27;20116;-70
2023/02/02 01:37:00;;;;;;;5.45;2.70;;;;;;;5.31;80.10;100140.03;5095925;28;20898;-69
2023/02/02 01:39:26;;;;;;;3.40;2.45;;;;;;;5.30;78.77;100102.94;5095462;27;20016;-69
2023/02/02 01:41:51;;;;;;;5.78;2.80;;;;;;;5.44;78.88;100135.56;5099674;28;20035;-69
2023/02/02 01:44:54;;;;;;;5.30;2.30;;;;;;;5.47;79.33;100135.38;5096887;28;20099;-69
2023/02/02 01:47:23;;;;;;;2.97;2.20;;;;;;;5.51;77.35;100110.25;5094764;28;20106;-69
2023/02/02 01:49:50;;;;;;;5.13;2.40;;;;;;;5.33;78.33;100116.88;5077935;28;20032;-69
2023/02/02 01:52:18;;;;;;;2.85;1.95;;;;;;;5.72;75.51;100132.69;5070023;28;20035;-68
2023/02/02 01:54:48;;;;;;;3.97;2.10;;;;;;;5.56;75.38;100121.44;5077537;28;20027;-68
2023/02/02 01:57:25;;;;;;;2.35;1.85;;;;;;;5.71;74.86;100156.75;5097304;28;20120;-68
2023/02/02 01:59:54;;;;;;;7.68;2.63;;;;;;;5.54;74.35;100117.16;5092880;28;20422;-69
2023/02/02 02:02:20;;;;;;;4.50;2.15;;;;;;;5.62;74.45;100144.94;5087997;28;20040;-69
2023/02/02 02:04:47;;;;;;;3.78;2.40;;;;;;;5.59;74.01;100145.16;5076498;28;20163;-69
2023/02/02 02:07:12;;;;;;;3.60;2.58;;;;;;;5.67;72.63;100155.25;5088361;28;20100;-69
2023/02/02 02:09:38;;;;;;;4.63;2.22;;;;;;;5.90;71.97;100186.44;5092800;28;20040;-69
2023/02/02 02:12:14;;;;;;;4.65;2.40;;;;;;;5.75;71.59;100164.41;5082376;28;20395;-69
2023/02/02 02:17:47;;;;;;;3.13;1.63;;;;;;;5.75;73.86;100195.47;5098850;28;20112;-69
2023/02/02 02:26:55;;;;;;;1.52;0.70;;;;;;;5.57;82.80;100183.44;5099203;28;20220;-69
2023/02/02 02:29:52;;;;;;;1.50;0.73;;;;;;;5.55;84.15;100177.41;5082807;28;20023;-69
2023/02/02 02:32:50;;;;;;;1.25;0.80;;;;;;;5.54;84.02;100157.06;5093224;27;20420;-69
2023/02/02 02:35:58;;;;;;;2.00;1.08;;;;;;;5.49;82.90;100151.22;5103497;28;20442;-69
2023/02/02 02:38:36;;;;;;;3.38;1.00;;;;;;;5.56;82.98;100155.16;5061522;28;20050;-69
2023/02/02 02:41:11;;;;;;;1.83;1.10;;;;;;;5.40;83.05;100128.78;5075232;28;20097;-69
2023/02/02 02:43:45;;;;;;;3.10;1.40;;;;;;;5.48;81.65;100138.88;5081556;28;20034;-69
2023/02/02 02:46:11;;;;;;;1.67;1.23;;;;;;;5.37;82.30;100125.47;5099380;28;20135;-69
2023/02/02 02:48:37;;;;;;;3.13;1.45;;;;;;;5.28;81.27;100102.19;5095583;28;20106;-69
2023/02/02 02:51:28;;;;;;;4.47;1.70;;;;;;;5.44;80.78;100116.97;5076644;28;20170;-69
2023/02/02 02:53:55;;;;;;;5.10;1.80;;;;;;;5.49;80.87;100140.59;5097236;28;20531;-69
2023/02/02 02:56:34;;;;;;;3.22;1.98;;;;;;;5.35;81.16;100106.97;5082056;28;20546;-69
2023/02/02 02:59:09;;;;;;;2.65;1.60;;;;;;;5.38;80.51;100125.38;5087480;28;20023;-69
2023/02/02 03:01:54;;;;;;;5.65;2.45;;;;;;;5.52;80.04;100135.06;5079626;28;20548;-69
2023/02/02 03:04:59;;;;;;;4.28;2.40;;;;;;;5.39;80.53;100126.22;5073818;28;20486;-69
2023/02/02 03:07:46;;;;;;;5.35;2.38;;;;;;;5.28;80.80;100105.69;5074832;28;20024;-69
2023/02/02 03:10:17;;;;;;;5.65;2.58;;;;;;;5.41;80.18;100124.28;5078489;28;20178;-69
2023/02/02 03:12:47;;;;;;;4.70;2.47;;;;;;;5.44;80.14;100127.59;5079914;28;20040;-68
2023/02/02 03:15:14;;;;;;;3.05;2.22;;;;;;;5.35;80.29;100103.47;5077980;28;20037;-70
2023/02/02 03:17:40;;;;;;;4.80;2.50;;;;;;;5.39;80.59;100115.59;5099211;28;20042;-68
2023/02/02 03:20:06;;;;;;;3.90;2.47;;;;;;;5.42;81.38;100124.19;5097364;28;20427;-67
2023/02/02 03:22:32;;;;;;;5.55;2.35;;;;;;;5.30;81.87;100122.41;5076118;28;20042;-69
2023/02/02 03:24:58;;;;;;;3.65;2.00;;;;;;;5.22;82.06;100110.59;5071911;28;20016;-69
2023/02/02 03:27:24;;;;;;;4.13;2.03;;;;;;;5.17;83.02;100105.59;5100806;28;20019;-69
2023/02/02 03:29:50;;;;;;;4.88;2.22;;;;;;;5.33;83.78;100124.00;5093154;28;20056;-68
2023/02/02 03:32:16;;;;;;;5.18;2.15;;;;;;;5.24;83.71;100101.56;5098909;28;20038;-69
2023/02/02 03:34:42;;;;;;;5.20;1.67;;;;;;;5.32;83.99;100111.66;5075691;28;20040;-69
2023/02/02 03:37:07;;;;;;;3.15;2.08;;;;;;;5.14;84.66;100081.03;5095274;28;20028;-68
2023/02/02 03:39:33;;;;;;;5.38;2.13;;;;;;;5.13;85.16;100085.50;5095503;28;20025;-68
2023/02/02 03:41:58;;;;;;;4.10;2.35;;;;;;;5.32;85.90;100138.25;5076283;28;20031;-68
2023/02/02 03:44:24;;;;;;;3.85;2.00;;;;;;;5.17;86.74;100124.22;5092751;28;20059;-68
2023/02/02 03:46:52;;;;;;;5.40;2.00;;;;;;;5.19;86.54;100138.22;5078677;28;20030;-70
2023/02/02 03:49:18;;;;;;;3.85;1.70;;;;;;;5.11;86.82;100137.91;5098778;28;20612;-68
2023/02/02 03:51:43;;;;;;;3.33;1.80;;;;;;;4.95;87.68;100100.06;5077992;28;20093;-67
2023/02/02 03:54:09;;;;;;;3.95;1.40;;;;;;;5.07;87.95;100133.78;5102114;28;20395;-68
2023/02/02 03:56:34;;;;;;;6.68;1.30;;;;;;;4.91;89.18;100121.63;5083420;28;20019;-68
2023/02/02 03:58:59;;;;;;;3.38;1.38;;;;;;;4.69;89.79;100099.19;5080953;28;20498;-68
2023/02/02 04:01:28;;;;;;;2.60;1.17;;;;;;;4.93;90.36;100141.81;5076645;28;20517;-68
2023/02/02 04:03:55;;;;;;;2.88;1.10;;;;;;;5.02;90.64;100169.56;5098001;28;20031;-68
2023/02/02 04:06:20;;;;;;;2.88;0.90;;;;;;;4.85;91.42;100144.16;5103060;28;20035;-67
2023/02/02 04:08:46;;;;;;;1.50;0.85;;;;;;;4.75;92.25;100151.03;5081824;28;20379;-69
2023/02/02 04:11:11;;;;;;;3.28;0.80;;;;;;;4.86;92.10;100145.00;5105892;28;20079;-68
2023/02/02 04:13:38;;;;;;;2.90;0.82;;;;;;;4.78;92.48;100155.28;5100552;27;20122;-67
2023/02/02 04:16:04;;;;;;;1.77;0.77;;;;;;;4.78;93.02;100167.59;5101648;27;20031;-68
2023/02/02 04:18:30;;;;;;;1.85;0.75;;;;;;;4.59;92.86;100148.50;5081704;28;20038;-68
2023/02/02 04:21:00;;;;;;;3.05;0.80;;;;;;;4.62;92.80;100150.97;5094520;27;20019;-68
2023/02/02 04:23:26;;;;;;;3.92;0.88;;;;;;;4.70;93.46;100156.66;5102982;28;20047;-68
2023/02/02 04:25:52;;;;;;;2.95;1.10;;;;;;;4.62;93.91;100140.34;5082361;28;20035;-69
2023/02/02 04:28:18;;;;;;;2.00;0.90;;;;;;;4.56;93.55;100138.13;5103617;28;20059;-69
2023/02/02 04:30:44;;;;;;;3.22;0.93;;;;;;;4.64;93.93;100162.34;5097246;27;20118;-69
2023/02/02 04:33:09;;;;;;;3.65;1.13;;;;;;;4.38;94.12;100128.72;5097547;27;20347;-76
2023/02/02 04:35:35;;;;;;;1.60;0.93;;;;;;;4.56;94.00;100164.69;5101265;27;20039;-76
2023/02/02 04:38:00;;;;;;;3.08;1.35;;;;;;;4.52;94.52;100167.63;5082672;28;20092;-76
2023/02/02 04:40:26;;;;;;;3.30;1.00;;;;;;;4.46;94.37;100157.41;5105711;28;20019;-75
2023/02/02 04:42:51;;;;;;;2.53;1.20;;;;;;;4.45;94.97;100151.25;5099113;28;20055;-75
2023/02/02 04:45:16;;;;;;;4.05;1.23;;;;;;;4.37;95.46;100158.00;5081350;28;20031;-75
2023/02/02 04:47:42;;;;;;;4.28;1.30;;;;;;;4.34;96.18;100175.00;5103951;28;20028;-75
2023/02/02 04:50:08;;;;;;;2.05;1.45;;;;;;;4.31;96.40;100174.31;5084398;28;20063;-75
2023/02/02 04:52:34;;;;;;;1.50;1.10;;;;;;;4.19;96.52;100167.13;5099588;28;20044;-75
2023/02/02 04:55:00;;;;;;;2.38;1.20;;;;;;;4.25;96.69;100190.63;5094110;27;20024;-75
2023/02/02 04:57:25;;;;;;;2.15;0.90;;;;;;;4.16;96.57;100170.03;5101923;28;20483;-74
2023/02/02 04:59:51;;;;;;;3.53;1.50;;;;;;;4.12;96.91;100179.97;5099863;28;20027;-75
2023/02/02 05:02:17;;;;;;;7.65;1.20;;;;;;;4.17;97.29;100188.50;5095899;27;20483;-74
2023/02/02 05:04:42;;;;;;;3.95;1.30;;;;;;;4.15;96.65;100173.59;5079154;28;20118;-75
2023/02/02 05:07:08;;;;;;;1.95;1.27;;;;;;;4.03;96.56;100177.06;5092769;27;20015;-75
2023/02/02 05:09:33;;;;;;;1.05;0.80;;;;;;;4.09;96.67;100188.13;5090648;28;20111;-76
2023/02/02 05:11:58;;;;;;;4.95;1.48;;;;;;;4.02;96.78;100185.94;5097193;28;20552;-76
2023/02/02 05:14:24;;;;;;;3.78;0.90;;;;;;;3.88;97.48;100176.22;5078756;28;20570;-68
2023/02/02 05:16:49;;;;;;;1.80;0.90;;;;;;;3.82;97.57;100173.09;5078759;28;20042;-69
2023/02/02 05:19:15;;;;;;;2.08;1.10;;;;;;;3.96;97.27;100188.97;5075231;27;20613;-69
2023/02/02 05:21:44;;;;;;;3.35;1.10;;;;;;;3.87;97.77;100182.47;5096700;27;20051;-68
2023/02/02 05:24:11;;;;;;;5.07;1.58;;;;;;;3.82;97.76;100189.88;5074221;28;20034;-69
2023/02/02 05:26:37;;;;;;;2.60;1.15;;;;;;;3.69;98.24;100191.59;5071793;28;21513;-68
2023/02/02 05:29:03;;;;;;;3.83;1.23;;;;;;;3.55;98.83;100167.69;5095517;28;20107;-68
2023/02/02 05:31:30;;;;;;;2.25;1.20;;;;;;;3.57;98.24;100167.59;5068091;28;20050;-69
2023/02/02 05:33:55;;;;;;;3.45;1.10;;;;;;;3.60;98.94;100189.50;5091202;28;20034;-69
2023/02/02 05:36:21;;;;;;;2.25;1.13;;;;;;;3.70;98.96;100208.31;5091684;27;20035;-69
2023/02/02 05:38:46;;;;;;;2.55;1.10;;;;;;;3.59;98.86;100189.59;5092938;28;20019;-67
2023/02/02 05:41:11;;;;;;;2.33;1.23;;;;;;;3.40;98.96;100157.19;5069846;27;20043;-68
2023/02/02 05:43:37;;;;;;;5.28;1.30;;;;;;;3.64;99.00;100198.13;5098258;27;20028;-67
2023/02/02 05:46:03;;;;;;;3.30;1.30;;;;;;;3.52;99.04;100194.38;5090623;27;20030;-68
2023/02/02 05:48:28;;;;;;;2.40;0.80;;;;;;;3.51;99.08;100192.69;5084510;28;20043;-69
2023/02/02 05:51:19;;;;;;;2.85;1.27;;;;;;;3.65;98.74;100197.16;5096442;28;20403;-70
2023/02/02 05:53:44;;;;;;;3.05;1.88;;;;;;;3.42;98.71;100165.91;5079439;28;20380;-71
2023/02/02 05:56:11;;;;;;;1.88;1.20;;;;;;;3.65;98.13;100213.06;5095803;28;20034;-71
2023/02/02 05:58:37;;;;;;;3.97;1.17;;;;;;;3.44;98.58;100201.09;5093473;28;20668;-69
2023/02/02 06:01:02;;;;;;;5.10;1.27;;;;;;;3.24;98.89;100167.00;5093677;27;20088;-70
2023/02/02 06:03:28;;;;;;;2.78;1.20;;;;;;;3.08;98.66;100163.56;5081594;28;20031;-71
2023/02/02 06:05:53;;;;;;;4.20;1.80;;;;;;;3.49;99.40;100239.66;5083883;28;20023;-70
2023/02/02 06:08:19;;;;;;;4.35;1.50;;;;;;;3.24;99.73;100198.81;5101513;28;20384;-69
2023/02/02 06:10:44;;;;;;;3.25;1.80;;;;;;;3.42;99.72;100219.75;5104453;28;20172;-70
2023/02/02 06:13:10;;;;;;;5.50;1.65;;;;;;;3.29;99.61;100202.88;5078810;28;20043;-70
2023/02/02 06:15:36;;;;;;;5.75;1.60;;;;;;;3.50;99.22;100251.09;5097393;27;20061;-69
2023/02/02 06:18:02;;;;;;;7.30;1.77;;;;;;;3.43;99.12;100245.34;5097202;28;20513;-70
2023/02/02 06:20:28;;;;;;;5.60;1.90;;;;;;;3.22;99.87;100227.22;5099318;28;20035;-69
2023/02/02 06:22:53;;;;;;;6.13;2.55;;;;;;;3.25;100.00;100241.13;5093709;27;20027;-68
2023/02/02 06:25:19;;;;;;;7.25;2.35;;;;;;;3.24;100.00;100244.72;5093525;28;20069;-69
2023/02/02 06:27:45;;;;;;;5.18;1.75;;;;;;;3.25;100.00;100259.66;5078319;28;20093;-69
2023/02/02 06:30:12;;;;;;;3.65;1.90;;;;;;;3.12;100.00;100224.25;5098816;28;20103;-69
2023/02/02 06:32:37;;;;;;;4.65;2.13;;;;;;;3.15;100.00;100249.69;5095203;28;20032;-69
2023/02/02 06:35:04;;;;;;;5.88;1.85;;;;;;;3.05;100.00;100236.16;5086218;28;20032;-69
2023/02/02 06:37:29;;;;;;;6.65;2.75;;;;;;;3.06;100.00;100235.19;5088121;28;20292;-68
2023/02/02 06:39:55;;;;;;;7.70;2.67;;;;;;;2.93;100.00;100225.44;5073066;28;20035;-68
2023/02/02 06:42:20;;;;;;;7.90;2.20;;;;;;;2.96;100.00;100236.66;5075376;28;20470;-70
2023/02/02 06:44:46;;;;;;;3.65;1.60;;;;;;;3.23;100.00;100276.59;5092269;28;20028;-75
2023/02/02 06:47:11;;;;;;;6.70;1.60;;;;;;;3.17;100.00;100267.22;5091734;28;20040;-75
2023/02/02 06:49:37;;;;;;;5.10;1.63;;;;;;;3.21;99.83;100275.84;5078046;28;20028;-74
2023/02/02 06:52:02;;;;;;;3.83;1.50;;;;;;;3.11;99.44;100256.97;5096469;28;20042;-74
2023/02/02 06:54:28;;;;;;;5.80;1.40;;;;;;;3.17;99.08;100266.38;5103317;28;20027;-74
2023/02/02 06:56:54;;;;;;;6.95;1.63;;;;;;;3.23;98.88;100284.56;5104637;28;20027;-75
2023/02/02 06:59:20;;;;;;;2.33;1.40;;;;;;;3.26;99.07;100281.72;5075716;28;20027;-75
2023/02/02 07:01:48;;;;;;;4.13;1.65;;;;;;;3.21;98.93;100270.53;5094486;28;20037;-75
2023/02/02 07:04:15;;;;;;;2.60;1.25;;;;;;;3.19;98.47;100277.75;5095595;28;20031;-75
2023/02/02 07:06:40;;;;;;;3.85;1.50;;;;;;;3.26;98.41;100271.97;5100582;28;20607;-75
2023/02/02 07:09:06;;;;;;;4.13;1.77;;;;;;;3.33;98.15;100283.06;5102341;28;20020;-75
2023/02/02 07:11:34;;;;;;;3.97;1.67;;;;;;;3.39;98.11;100294.16;5101818;28;20033;-74
2023/02/02 07:14:00;;;;;;;5.07;1.98;;;;;;;3.27;98.33;100299.31;5095179;28;20050;-75
2023/02/02 07:16:25;;;;;;;4.15;2.05;;;;;;;3.36;98.35;100309.41;5084735;28;20546;-75
2023/02/02 07:18:51;;;;;;;4.70;1.30;;;;;;;3.47;97.48;100314.91;5099751;28;20015;-75
2023/02/02 07:21:21;;;;;;;3.47;1.48;;;;;;;3.44;97.18;100315.09;5081886;28;20035;-73
2023/02/02 07:23:47;;;;;;;5.72;1.50;;;;;;;3.44;97.72;100308.00;5104100;28;20719;-68
2023/02/02 07:26:13;;;;;;;4.05;1.25;;;;;;;3.58;96.96;100310.69;5086446;28;20384;-68
2023/02/02 07:28:39;;;;;;;5.03;1.80;;;;;;;3.62;96.45;100314.88;5104475;28;20422;-67
2023/02/02 07:31:19;;;;;;;2.78;1.15;;;;;;;3.65;95.65;100296.09;5104847;28;20023;-68
2023/02/02 07:33:45;;;;;;;3.83;1.08;;;;;;;3.66;94.80;100284.56;5087454;28;20043;-68
2023/02/02 07:36:15;;;;;;;2.13;1.17;;;;;;;3.71;94.17;100294.91;5088908;28;20023;-68
2023/02/02 07:38:40;;;;;;;4.97;1.27;;;;;;;3.61;94.29;100278.69;5105406;28;20015;-67
2023/02/02 07:41:06;;;;;;;4.03;1.70;;;;;;;3.78;95.03;100304.19;5102291;27;20024;-67
2023/02/02 07:43:31;;;;;;;2.70;1.10;;;;;;;3.74;93.99;100278.81;5087593;28;20085;-68
2023/02/02 07:46:01;;;;;;;2.28;1.15;;;;;;;3.67;93.60;100257.09;5080305;28;20080;-67
2023/02/02 07:48:29;;;;;;;2.72;1.00;;;;;;;3.87;93.56;100299.19;5098126;28;20047;-68
2023/02/02 07:51:01;;;;;;;3.50;1.83;;;;;;;3.95;92.74;100298.72;5082433;28;20062;-67
2023/02/02 07:53:27;;;;;;;2.15;1.15;;;;;;;4.01;91.36;100298.34;5099151;28;20031;-68
2023/02/02 07:55:53;;;;;;;2.97;1.30;;;;;;;3.79;92.04;100266.97;5106119;28;20031;-68
2023/02/02 07:58:18;;;;;;;4.00;1.40;;;;;;;4.06;91.65;100314.81;5106574;28;20024;-68
2023/02/02 08:00:44;;;;;;;2.58;1.10;;;;;;;3.78;91.54;100254.63;5097359;28;20028;-68
2023/02/02 08:03:12;;;;;;;2.85;1.08;;;;;;;3.93;90.18;100260.81;5085896;28;20023;-68
2023/02/02 08:05:37;;;;;;;3.95;1.55;;;;;;;4.27;89.47;100325.00;5099896;28;20027;-68
2023/02/02 08:08:03;;;;;;;2.42;1.20;;;;;;;4.20;89.18;100309.53;5081219;28;20530;-68
2023/02/02 08:10:29;;;;;;;4.68;1.60;;;;;;;4.32;89.06;100335.31;5082666;28;20110;-69
2023/02/02 08:12:54;;;;;;;4.28;1.73;;;;;;;4.35;87.69;100349.25;5086741;28;20039;-69
2023/02/02 08:15:20;;;;;;;4.70;1.83;;;;;;;4.24;88.41;100334.94;5102922;28;20043;-68
2023/02/02 08:17:48;;;;;;;3.72;1.88;;;;;;;4.45;87.09;100341.59;5101823;28;20027;-69
2023/02/02 08:20:14;;;;;;;4.38;1.30;;;;;;;4.47;86.62;100329.91;5107158;28;20019;-69
2023/02/02 08:22:40;;;;;;;4.47;1.40;;;;;;;4.63;86.03;100351.91;5104524;28;20536;-69
2023/02/02 08:25:06;;;;;;;4.90;1.52;;;;;;;4.53;85.48;100333.97;5105984;28;20039;-69
2023/02/02 08:27:32;;;;;;;3.42;1.20;;;;;;;4.38;86.17;100305.72;5104539;28;20020;-69
2023/02/02 08:29:57;;;;;;;5.50;2.10;;;;;;;4.74;82.58;100317.53;5105273;28;20034;-69
2023/02/02 08:32:23;;;;;;;3.80;1.45;;;;;;;4.56;82.90;100281.53;5101287;28;20101;-68
2023/02/02 08:34:50;;;;;;;3.55;1.33;;;;;;;5.00;80.46;100315.81;5084582;28;20371;-68
2023/02/02 08:37:16;;;;;;;7.30;2.20;;;;;;;5.04;81.50;100332.44;5104488;28;20016;-69
2023/02/02 08:39:41;;;;;;;5.88;1.73;;;;;;;4.98;81.33;100303.59;5086628;28;20390;-68
2023/02/02 08:42:07;;;;;;;5.57;1.33;;;;;;;4.98;81.16;100307.13;5102923;28;20023;-68
2023/02/02 08:44:32;;;;;;;2.83;0.82;;;;;;;5.18;78.93;100305.81;5088749;28;20023;-68
2023/02/02 08:46:57;;;;;;;5.38;1.48;;;;;;;5.44;77.95;100351.00;5100446;27;20367;-69
2023/02/02 08:49:23;;;;;;;6.75;2.33;;;;;;;5.39;79.13;100352.25;5104480;27;20498;-68
2023/02/02 08:51:48;;;;;;;4.00;1.40;;;;;;;5.44;76.76;100358.97;5098180;28;20053;-68
2023/02/02 08:54:14;;;;;;;4.85;2.10;;;;;;;5.37;76.92;100331.09;5102177;28;22247;-68
2023/02/02 08:56:39;;;;;;;4.68;1.60;;;;;;;5.49;76.80;100375.50;5084861;28;20051;-68
2023/02/02 08:59:05;;;;;;;7.05;1.90;;;;;;;5.56;76.47;100357.31;5105925;28;20022;-68
2023/02/02 09:01:32;;;;;;;2.50;1.20;;;;;;;5.68;75.80;100386.59;5103701;28;20050;-68
2023/02/02 09:03:57;;;;;;;3.50;1.00;;;;;;;5.60;76.55;100367.63;5105147;28;20773;-68
2023/02/02 09:06:38;;;;;;;4.78;1.83;;;;;;;5.75;75.65;100392.38;5103280;28;21279;-68
2023/02/02 09:09:05;;;;;;;5.93;1.48;;;;;;;5.70;74.90;100366.06;5095282;27;20387;-68
2023/02/02 09:11:30;;;;;;;4.10;1.10;;;;;;;5.71;73.84;100341.16;5101657;28;20047;-68
2023/02/02 09:13:58;;;;;;;4.90;1.20;;;;;;;6.08;72.73;100387.47;5103208;28;20044;-68
2023/02/02 09:16:25;;;;;;;6.40;1.20;;;;;;;6.08;72.19;100377.66;5104887;27;20046;-68
2023/02/02 09:18:51;;;;;;;3.00;1.20;;;;;;;5.95;73.10;100360.84;5080159;28;20027;-68
2023/02/02 09:21:18;;;;;;;2.25;1.10;;;;;;;6.10;73.71;100373.06;5078915;28;20096;-69
2023/02/02 09:23:44;;;;;;;5.85;1.30;;;;;;;6.24;72.93;100370.34;5104369;28;20157;-68
2023/02/02 09:26:13;;;;;;;4.50;1.25;;;;;;;6.46;71.57;100388.34;5080973;28;20490;-68
2023/02/02 09:28:39;;;;;;;7.25;1.25;;;;;;;6.45;71.19;100383.97;5096001;28;20024;-68
2023/02/02 09:31:06;;;;;;;3.60;1.10;;;;;;;6.28;71.48;100385.13;5078018;28;20470;-68
2023/02/02 09:33:32;;;;;;;3.38;1.20;;;;;;;6.23;71.53;100347.31;5081542;28;20020;-69
2023/02/02 09:36:25;;;;;;;5.82;1.23;;;;;;;6.46;71.11;100386.53;5098039;28;20053;-69
2023/02/02 09:38:51;;;;;;;4.70;1.65;;;;;;;6.48;71.55;100373.09;5106293;27;20039;-69
2023/02/02 09:41:37;;;;;;;4.35;1.42;;;;;;;6.49;72.71;100374.81;5104934;28;20704;-69
2023/02/02 09:44:22;;;;;;;3.30;1.30;;;;;;;6.55;72.85;100385.88;5106432;28;20028;-75
2023/02/02 09:47:22;;;;;;;4.55;1.20;;;;;;;6.67;71.92;100365.50;5097552;28;20055;-69
2023/02/02 09:50:11;;;;;;;3.67;1.15;;;;;;;6.82;69.44;100351.94;4986188;28;20083;-69
2023/02/02 09:52:42;;;;;;;9.13;1.30;;;;;;;6.93;68.12;100373.34;5093612;28;20487;-69
2023/02/02 09:55:33;;;;;;;3.45;1.10;;;;;;;6.96;68.41;100354.44;5105280;28;20102;-69
2023/02/02 09:58:23;;;;;;;6.50;1.75;;;;;;;7.06;67.42;100367.13;5098214;28;20445;-70
2023/02/02 10:00:55;;;;;;;2.67;1.20;;;;;;;7.14;65.87;100372.75;5082093;28;20063;-69
2023/02/02 10:03:31;;;;;;;2.67;1.15;;;;;;;6.76;66.46;100312.41;5085868;28;20028;-70
2023/02/02 10:06:01;;;;;;;4.03;1.60;;;;;;;7.23;68.31;100367.59;5101386;28;20031;-69
2023/02/02 10:08:35;;;;;;;6.93;1.65;;;;;;;7.16;68.18;100334.31;5098818;28;20081;-69
2023/02/02 10:11:10;;;;;;;5.40;1.15;;;;;;;7.52;66.58;100342.28;5100651;28;20044;-69
2023/02/02 10:13:38;;;;;;;5.13;1.25;;;;;;;7.82;63.82;100369.34;5095680;28;20051;-68
2023/02/02 10:16:15;;;;;;;6.38;1.05;;;;;;;7.77;63.30;100334.09;5095889;28;20027;-69
2023/02/02 10:19:10;;;;;;;5.63;1.75;;;;;;;7.93;63.02;100379.19;5096009;28;20024;-68
2023/02/02 10:21:42;;;;;;;7.97;1.55;;;;;;;7.87;60.82;100347.63;5100320;28;20391;-69
2023/02/02 10:24:24;;;;;;;4.00;1.02;;;;;;;7.91;61.28;100339.28;5082278;28;20032;-69
2023/02/02 10:26:53;;;;;;;6.13;1.80;;;;;;;8.15;62.42;100360.53;5100912;28;20054;-69
2023/02/02 10:29:22;;;;;;;3.75;2.20;;;;;;;8.27;62.40;100370.31;5108008;27;20127;-69
2023/02/02 10:32:03;;;;;;;9.48;3.22;;;;;;;8.41;61.46;100359.41;5098976;28;20868;-70
2023/02/02 10:34:47;;;;;;;6.40;1.92;;;;;;;8.53;60.19;100361.13;5098286;28;20032;-69
2023/02/02 10:37:37;;;;;;;5.20;1.23;;;;;;;8.49;59.94;100351.66;5080263;28;20444;-69
2023/02/02 10:40:21;;;;;;;4.57;1.25;;;;;;;8.49;59.84;100351.66;5083630;28;20031;-70
2023/02/02 10:45:39;;;;;;;2.88;1.48;;;;;;;8.36;60.72;100353.59;5096968;28;20038;-75
2023/02/02 10:48:17;;;;;;;7.70;1.70;;;;;;;8.24;61.80;100341.16;5101192;28;20028;-74
2023/02/02 10:50:47;;;;;;;10.05;3.75;;;;;;;8.40;58.68;100336.31;5080075;28;20476;-74
2023/02/02 10:53:14;;;;;;;4.50;1.70;;;;;;;8.32;59.06;100333.41;5103839;28;20425;-75
2023/02/02 10:55:47;;;;;;;8.90;1.85;;;;;;;8.26;58.54;100347.25;5101433;28;20039;-75
2023/02/02 10:58:12;;;;;;;7.07;1.88;;;;;;;8.34;58.49;100347.50;5105591;28;20534;-75
2023/02/02 11:00:45;;;;;;;5.60;1.63;;;;;;;8.30;57.75;100351.38;5087411;28;20107;-75
2023/02/02 11:03:12;;;;;;;4.28;1.60;;;;;;;8.26;57.27;100341.91;5089215;28;20076;-75
2023/02/02 11:08:31;;;;;;;;;;;;;;;8.28;57.68;100337.28;5106279;28;20455;-75
2023/02/02 11:11:08;;;;;;;3.55;1.42;;;;;;;8.49;56.16;100324.91;5089808;28;20446;-74
2023/02/02 11:13:45;;;;;;;7.70;2.85;;;;;;;8.39;56.87;100315.94;5106613;28;20125;-75
2023/02/02 11:16:13;;;;;;;6.95;2.88;;;;;;;8.46;57.74;100331.38;5105758;28;20027;-75
2023/02/02 11:18:40;;;;;;;4.43;1.45;;;;;;;8.62;57.50;100325.66;5108159;28;20416;-75
2023/02/02 11:21:33;;;;;;;3.20;1.33;;;;;;;8.87;55.68;100328.06;5106742;28;20032;-75
2023/02/02 11:24:01;;;;;;;4.47;1.45;;;;;;;8.85;56.03;100338.03;5104823;28;20051;-75
2023/02/02 11:26:41;;;;;;;10.00;2.35;;;;;;;8.69;55.76;100346.44;5109887;28;20030;-75
2023/02/02 11:29:31;;;;;;;3.92;1.50;;;;;;;8.56;56.49;100326.13;5107044;28;20066;-75
2023/02/02 11:31:57;;;;;;;7.85;1.40;;;;;;;8.55;56.43;100327.13;5100145;28;20468;-70
2023/02/02 11:34:27;;;;;;;4.70;1.13;;;;;;;8.37;56.12;100323.22;5083019;28;20107;-70
2023/02/02 11:37:01;;;;;;;6.85;1.02;;;;;;;8.23;56.33;100312.75;5102128;28;20072;-70
2023/02/02 11:39:27;;;;;;;6.90;1.80;;;;;;;7.99;56.78;100266.56;5097169;28;20023;-69
2023/02/02 11:42:06;;;;;;;6.20;2.03;;;;;;;8.15;56.92;100302.63;5100208;28;20035;-70
2023/02/02 11:44:34;;;;;;;8.23;1.50;;;;;;;8.08;56.75;100293.41;5086946;28;20032;-70
2023/02/02 11:47:03;;;;;;;4.07;1.20;;;;;;;7.93;57.01;100277.72;5087694;28;20027;-70
2023/02/02 11:49:41;;;;;;;2.85;0.90;;;;;;;8.15;56.94;100304.44;5101516;28;20020;-69
2023/02/02 11:52:18;;;;;;;5.38;1.15;;;;;;;8.11;57.56;100285.16;5106548;28;20031;-69
2023/02/02 11:54:53;;;;;;;4.00;0.93;;;;;;;8.37;56.29;100324.06;5107989;28;20024;-69
2023/02/02 11:57:21;;;;;;;3.67;1.38;;;;;;;8.30;57.52;100297.94;5107854;28;20027;-70
2023/02/02 11:59:49;;;;;;;2.58;1.10;;;;;;;8.21;58.85;100294.16;5104177;28;20024;-69